Time;durP1;ratioP1;P1;durP2;ratioP2;P2;SDS_P1;SDS_P2;PMS_P1;PMS_P2;Temp;Humidity;BMP_temperature;BMP_pressure;BME280_temperature;BME280_humidity;BME280_pressure;Samples;Min_cycle;Max_cycle;Signal;HPM_P1;HPM_P2
2021/12/12 00:01:33;;;;;;;355.23;130.18;;;-6.50;99.90;;;;;;5059084;28;20147;-82
2021/12/12 00:04:11;;;;;;;363.63;129.25;;;-6.50;99.90;;;;;;5074028;28;20092;-82
2021/12/12 00:06:41;;;;;;;361.95;130.13;;;-6.60;99.90;;;;;;5054974;28;20036;-85
2021/12/12 00:09:34;;;;;;;355.00;131.07;;;-6.60;99.90;;;;;;5057733;28;20044;-85
2021/12/12 00:12:04;;;;;;;363.25;131.13;;;-6.60;99.90;;;;;;5034629;28;20041;-85
2021/12/12 00:14:33;;;;;;;349.17;129.55;;;-6.70;99.90;;;;;;5053781;28;20033;-84
2021/12/12 00:16:59;;;;;;;;;;;-6.70;99.90;;;;;;5049978;28;20056;-83
2021/12/12 00:19:28;;;;;;;355.80;125.57;;;-6.70;99.90;;;;;;5053087;28;19920;-85
2021/12/12 00:21:58;;;;;;;352.58;127.63;;;-6.70;99.90;;;;;;5051424;28;20040;-83
2021/12/12 00:24:24;;;;;;;330.10;118.72;;;-6.70;99.90;;;;;;5051833;28;20037;-83
2021/12/12 00:26:53;;;;;;;347.42;122.50;;;-6.70;99.90;;;;;;5019889;28;20049;-82
2021/12/12 00:29:20;;;;;;;;;;;-6.70;99.90;;;;;;5052044;28;20036;-82
2021/12/12 00:31:49;;;;;;;331.33;123.97;;;-6.70;99.90;;;;;;5056043;28;20020;-83
2021/12/12 00:34:16;;;;;;;349.33;124.95;;;-6.70;99.90;;;;;;5085344;28;20041;-83
2021/12/12 00:36:43;;;;;;;328.90;124.43;;;-6.60;99.90;;;;;;5034333;28;20044;-83
2021/12/12 00:39:20;;;;;;;344.85;129.20;;;-6.70;99.90;;;;;;5051303;28;20042;-84
2021/12/12 00:41:53;;;;;;;326.58;113.45;;;-6.70;99.90;;;;;;5067833;28;20041;-81
2021/12/12 00:44:19;;;;;;;334.38;117.30;;;-6.60;99.90;;;;;;5051261;28;20115;-83
2021/12/12 00:46:46;;;;;;;342.70;119.22;;;-6.70;99.90;;;;;;5045951;28;20033;-83
2021/12/12 00:49:14;;;;;;;331.15;113.05;;;-6.70;99.90;;;;;;5046608;28;20171;-83
2021/12/12 00:51:44;;;;;;;344.65;117.80;;;-6.70;99.90;;;;;;5055304;28;20033;-83
2021/12/12 00:54:13;;;;;;;353.45;119.57;;;-6.80;99.90;;;;;;5052066;28;20041;-85
2021/12/12 00:56:41;;;;;;;345.70;116.55;;;-6.80;99.90;;;;;;5035856;28;20045;-84
2021/12/12 00:59:07;;;;;;;339.33;110.50;;;-6.90;99.90;;;;;;5050640;28;20341;-84
2021/12/12 01:01:39;;;;;;;348.65;119.45;;;-6.90;99.90;;;;;;5065562;28;20511;-86
2021/12/12 01:04:25;;;;;;;326.00;111.25;;;-6.90;99.90;;;;;;5047650;28;20082;-84
2021/12/12 01:06:54;;;;;;;318.08;109.13;;;-7.00;99.90;;;;;;5043298;28;20099;-83
2021/12/12 01:09:27;;;;;;;317.80;105.05;;;-7.00;99.90;;;;;;5035172;28;20060;-85
2021/12/12 01:11:58;;;;;;;294.98;103.88;;;-6.90;99.90;;;;;;5046284;28;20045;-86
2021/12/12 01:14:30;;;;;;;294.95;105.85;;;-6.90;99.90;;;;;;5044666;28;20041;-85
2021/12/12 01:17:02;;;;;;;294.80;103.68;;;-6.90;99.90;;;;;;5052965;28;20370;-85
2021/12/12 01:19:56;;;;;;;278.58;97.93;;;-6.90;99.90;;;;;;5051067;28;20060;-85
2021/12/12 01:22:34;;;;;;;259.30;92.75;;;-6.80;99.90;;;;;;5036304;28;20131;-85
2021/12/12 01:25:10;;;;;;;256.92;91.43;;;-6.80;99.90;;;;;;5055982;28;20049;-84
2021/12/12 01:27:37;;;;;;;260.42;90.43;;;-6.80;99.90;;;;;;5040454;28;20496;-84
2021/12/12 01:30:07;;;;;;;263.20;94.60;;;-6.80;99.90;;;;;;5059779;28;20037;-83
2021/12/12 01:32:33;;;;;;;269.30;95.03;;;-6.80;99.90;;;;;;5091275;28;20057;-84
2021/12/12 01:35:00;;;;;;;279.35;97.53;;;-6.80;99.90;;;;;;5058852;28;20186;-85
2021/12/12 01:37:38;;;;;;;253.75;93.72;;;-6.70;99.90;;;;;;5060584;28;20044;-84
2021/12/12 01:40:26;;;;;;;257.48;94.45;;;-6.60;99.90;;;;;;5038476;28;20116;-85
2021/12/12 01:43:04;;;;;;;271.05;89.60;;;-6.70;99.90;;;;;;5051138;28;20042;-85
2021/12/12 01:45:39;;;;;;;266.30;91.32;;;-6.70;99.90;;;;;;5043749;28;20041;-84
2021/12/12 01:48:15;;;;;;;269.98;94.68;;;-6.70;99.90;;;;;;5037671;28;20048;-85
2021/12/12 01:50:49;;;;;;;259.33;90.57;;;-6.60;99.90;;;;;;5054109;28;20040;-84
2021/12/12 01:53:20;;;;;;;266.02;94.20;;;-6.60;99.90;;;;;;5054445;28;20443;-85
2021/12/12 01:55:52;;;;;;;268.23;89.60;;;-6.60;99.90;;;;;;5051847;28;20037;-86
2021/12/12 01:58:24;;;;;;;261.83;90.32;;;-6.50;99.90;;;;;;5051418;28;20037;-86
2021/12/12 02:01:10;;;;;;;259.20;91.97;;;-6.50;99.90;;;;;;5046314;28;20045;-88
2021/12/12 02:03:41;;;;;;;292.38;100.15;;;-6.40;99.90;;;;;;5078418;28;20047;-85
2021/12/12 02:06:10;;;;;;;261.48;96.65;;;-6.30;99.90;;;;;;5055843;28;20209;-85
2021/12/12 02:08:38;;;;;;;280.40;94.47;;;-6.40;99.90;;;;;;5051234;28;20086;-85
2021/12/12 02:11:19;;;;;;;274.33;91.70;;;-6.30;99.90;;;;;;5015108;28;20048;-84
2021/12/12 02:13:53;;;;;;;269.13;92.10;;;-6.30;99.90;;;;;;5047519;28;20063;-84
2021/12/12 02:16:22;;;;;;;272.33;94.65;;;-6.30;99.90;;;;;;5048977;28;20084;-84
2021/12/12 02:18:52;;;;;;;275.30;93.10;;;-6.20;99.90;;;;;;5034601;28;20496;-84
2021/12/12 02:21:35;;;;;;;267.02;92.38;;;-6.20;99.90;;;;;;5036527;28;20417;-86
2021/12/12 02:37:37;;;;;;;224.13;79.55;;;-6.00;99.90;;;;;;5037725;28;20036;-84
2021/12/12 02:40:19;;;;;;;237.35;76.47;;;-6.00;99.90;;;;;;5032861;28;20041;-86
2021/12/12 02:42:46;;;;;;;241.02;78.85;;;-6.10;99.90;;;;;;5048020;28;20049;-84
2021/12/12 02:45:16;;;;;;;221.20;80.53;;;-5.90;99.90;;;;;;5034640;28;20122;-83
2021/12/12 02:47:45;;;;;;;231.27;82.97;;;-6.10;99.90;;;;;;5031094;28;20037;-84
2021/12/12 02:50:21;;;;;;;243.25;84.82;;;-6.10;99.90;;;;;;5053103;28;20136;-87
2021/12/12 02:53:03;;;;;;;239.77;83.18;;;-6.10;99.90;;;;;;5035021;28;20072;-86
2021/12/12 02:55:34;;;;;;;223.02;78.65;;;-6.10;99.90;;;;;;5072121;28;20115;-86
2021/12/12 02:58:05;;;;;;;235.10;83.80;;;-6.10;99.90;;;;;;5061629;28;20036;-85
2021/12/12 03:03:30;;;;;;;224.55;81.70;;;-6.20;99.90;;;;;;5103089;27;20405;-86
2021/12/12 03:05:57;;;;;;;216.80;77.18;;;-6.20;99.90;;;;;;5119136;28;20062;-85
2021/12/12 03:08:23;;;;;;;222.90;78.18;;;-6.10;99.90;;;;;;5090831;28;20052;-86
2021/12/12 03:10:53;;;;;;;224.25;80.88;;;-6.10;99.90;;;;;;5089663;28;20037;-86
2021/12/12 03:13:22;;;;;;;246.82;81.35;;;-6.20;99.90;;;;;;5087202;28;20040;-87
2021/12/12 03:15:49;;;;;;;235.77;79.53;;;-6.10;99.90;;;;;;5076165;28;20041;-86
2021/12/12 03:18:22;;;;;;;234.57;80.32;;;-6.10;99.90;;;;;;5067136;28;20033;-84
2021/12/12 03:20:56;;;;;;;226.32;77.35;;;-6.10;99.90;;;;;;5065242;28;20037;-85
2021/12/12 03:23:29;;;;;;;224.40;77.30;;;-6.10;99.90;;;;;;5065192;28;20113;-85
2021/12/12 03:26:06;;;;;;;225.95;80.63;;;-6.00;99.90;;;;;;5029535;28;20044;-84
2021/12/12 03:28:36;;;;;;;241.43;85.40;;;-6.10;99.90;;;;;;5074496;28;20110;-84
2021/12/12 03:31:07;;;;;;;245.40;84.85;;;-6.10;99.90;;;;;;5063662;28;20704;-83
2021/12/12 03:33:33;;;;;;;234.27;79.85;;;-5.90;99.90;;;;;;5063519;28;20460;-84
2021/12/12 03:36:05;;;;;;;228.52;79.60;;;-6.10;99.90;;;;;;5059670;28;20041;-85
2021/12/12 03:38:33;;;;;;;241.57;80.07;;;-6.10;99.90;;;;;;5052803;28;20036;-84
2021/12/12 03:41:03;;;;;;;241.95;81.22;;;-6.10;99.90;;;;;;5064904;28;20044;-85
2021/12/12 03:43:30;;;;;;;256.17;79.20;;;-6.10;99.90;;;;;;5062945;28;20040;-84
2021/12/12 03:45:57;;;;;;;248.73;82.20;;;-6.10;99.90;;;;;;5062235;28;20105;-85
2021/12/12 03:48:30;;;;;;;237.40;83.47;;;-6.10;99.90;;;;;;5063943;28;20063;-85
2021/12/12 03:51:01;;;;;;;238.50;85.68;;;-6.20;99.90;;;;;;5051238;28;20044;-87
2021/12/12 03:53:28;;;;;;;250.93;84.30;;;-6.20;99.90;;;;;;5082735;28;20051;-85
2021/12/12 03:55:56;;;;;;;229.75;79.75;;;-6.20;99.90;;;;;;5046658;28;20125;-85
2021/12/12 03:58:23;;;;;;;253.95;85.50;;;-6.10;99.90;;;;;;5045256;28;20036;-85
2021/12/12 04:00:55;;;;;;;236.40;79.43;;;-6.10;99.90;;;;;;5065582;28;20401;-87
2021/12/12 04:03:22;;;;;;;241.77;82.72;;;-6.10;99.90;;;;;;5060412;28;20045;-84
2021/12/12 04:05:53;;;;;;;239.20;78.82;;;-6.10;99.90;;;;;;5076912;28;20483;-86
2021/12/12 04:08:26;;;;;;;244.95;81.07;;;-6.10;99.90;;;;;;5077584;28;20044;-87
2021/12/12 04:10:52;;;;;;;236.07;77.05;;;-6.00;99.90;;;;;;5064949;28;20555;-86
2021/12/12 04:13:18;;;;;;;227.55;81.65;;;-6.00;99.90;;;;;;5079068;28;20456;-86
2021/12/12 04:15:52;;;;;;;239.98;79.40;;;-6.00;99.90;;;;;;5047804;28;20087;-86
2021/12/12 04:18:24;;;;;;;223.85;75.30;;;-6.00;99.90;;;;;;5029539;28;20036;-86
2021/12/12 04:20:51;;;;;;;223.27;73.47;;;-5.90;99.90;;;;;;5038262;28;20038;-87
2021/12/12 04:23:19;;;;;;;223.65;80.32;;;-5.90;99.90;;;;;;5056233;28;20044;-88
2021/12/12 04:25:46;;;;;;;222.30;77.88;;;-5.90;99.90;;;;;;5060289;28;20045;-86
2021/12/12 04:28:13;;;;;;;218.10;77.40;;;-5.70;99.90;;;;;;5052205;28;20068;-85
2021/12/12 04:30:39;;;;;;;226.82;79.43;;;-5.90;99.90;;;;;;5033643;28;20109;-85
2021/12/12 04:33:06;;;;;;;225.45;79.70;;;-5.90;99.90;;;;;;5061318;28;20033;-86
2021/12/12 04:35:33;;;;;;;230.10;80.90;;;-5.90;99.90;;;;;;5049868;28;20049;-86
2021/12/12 04:38:01;;;;;;;235.48;81.95;;;-5.80;99.90;;;;;;5061010;28;20037;-87
2021/12/12 04:40:30;;;;;;;235.97;84.40;;;-5.80;99.90;;;;;;5035271;28;20174;-85
2021/12/12 04:42:58;;;;;;;232.30;79.65;;;-5.80;99.90;;;;;;5029826;28;20300;-84
2021/12/12 04:46:02;;;;;;;218.80;77.43;;;-5.80;99.90;;;;;;5062093;28;20136;-85
2021/12/12 04:51:57;;;;;;;223.38;80.15;;;-5.80;99.90;;;;;;5052921;28;20053;-84
2021/12/12 04:54:32;;;;;;;214.10;75.40;;;-5.80;99.90;;;;;;5045768;28;20060;-85
2021/12/12 04:57:05;;;;;;;220.23;81.30;;;-5.70;99.90;;;;;;5061531;28;20033;-86
2021/12/12 04:59:38;;;;;;;227.68;76.07;;;-5.70;99.90;;;;;;5035160;28;20036;-84
2021/12/12 05:02:17;;;;;;;223.45;76.57;;;-5.70;99.90;;;;;;5051815;28;20064;-86
2021/12/12 05:04:47;;;;;;;224.88;81.10;;;-5.60;99.90;;;;;;5033452;28;20051;-87
2021/12/12 05:07:20;;;;;;;239.32;82.57;;;-5.60;99.90;;;;;;5067203;28;20091;-86
2021/12/12 05:10:07;;;;;;;236.85;83.88;;;-5.60;99.90;;;;;;5033252;28;20561;-87
2021/12/12 05:12:43;;;;;;;252.00;87.45;;;-5.60;99.90;;;;;;5048580;28;20045;-85
2021/12/12 05:15:16;;;;;;;249.88;84.20;;;-5.60;99.90;;;;;;5062219;28;20056;-85
2021/12/12 05:17:48;;;;;;;251.32;85.78;;;-5.60;99.90;;;;;;5052005;28;20048;-85
2021/12/12 05:20:21;;;;;;;250.18;80.75;;;-5.50;99.90;;;;;;5050420;28;20098;-86
2021/12/12 05:22:53;;;;;;;266.10;80.70;;;-5.50;99.90;;;;;;5075608;28;20113;-84
2021/12/12 05:25:24;;;;;;;267.67;87.07;;;-5.40;99.90;;;;;;5045496;28;20421;-86
2021/12/12 05:27:53;;;;;;;268.73;85.70;;;-5.50;99.90;;;;;;5045611;28;20033;-84
2021/12/12 05:30:23;;;;;;;292.80;88.80;;;-5.40;99.90;;;;;;5061467;28;20057;-84
2021/12/12 05:32:51;;;;;;;273.60;83.57;;;-5.40;99.90;;;;;;5079672;28;20676;-86
2021/12/12 05:35:20;;;;;;;297.25;85.32;;;-5.30;99.90;;;;;;5016661;28;20417;-87
2021/12/12 05:37:50;;;;;;;292.73;92.80;;;-5.40;99.90;;;;;;5064057;28;20400;-85
2021/12/12 05:40:20;;;;;;;318.60;95.10;;;-5.40;99.90;;;;;;5032777;28;20373;-87
2021/12/12 05:42:49;;;;;;;298.92;91.07;;;-5.30;99.90;;;;;;5031675;28;20190;-85
2021/12/12 05:45:16;;;;;;;;;;;-5.30;99.90;;;;;;5053470;28;20480;-86
2021/12/12 05:47:43;;;;;;;295.33;91.90;;;-5.30;99.90;;;;;;5056423;28;19999;-85
2021/12/12 05:50:11;;;;;;;315.05;95.35;;;-5.30;99.90;;;;;;5051117;28;20041;-85
2021/12/12 05:52:41;;;;;;;304.85;94.13;;;-5.30;99.90;;;;;;5029367;28;20040;-84
2021/12/12 05:55:08;;;;;;;318.85;94.45;;;-5.30;99.90;;;;;;5030860;28;20043;-88
2021/12/12 05:57:35;;;;;;;316.95;92.25;;;-5.30;99.90;;;;;;5034686;28;20119;-84
2021/12/12 06:00:09;;;;;;;343.50;94.90;;;-5.30;99.90;;;;;;5029028;28;20503;-83
2021/12/12 06:02:36;;;;;;;311.65;96.07;;;-5.30;99.90;;;;;;5034104;28;20182;-84
2021/12/12 06:05:04;;;;;;;293.30;90.72;;;-5.20;99.90;;;;;;5048992;28;20037;-81
2021/12/12 06:07:31;;;;;;;327.33;98.50;;;-5.20;99.90;;;;;;5015903;28;20110;-82
2021/12/12 06:10:00;;;;;;;313.58;99.38;;;-5.20;99.90;;;;;;5045910;28;20786;-84
2021/12/12 06:12:27;;;;;;;296.33;91.35;;;-5.20;99.90;;;;;;5065398;28;20487;-82
2021/12/12 06:14:53;;;;;;;300.55;90.13;;;-5.10;99.90;;;;;;5065476;28;20052;-83
2021/12/12 06:17:21;;;;;;;294.60;92.45;;;-5.10;99.90;;;;;;5071500;28;20116;-83
2021/12/12 06:19:49;;;;;;;275.90;88.47;;;-5.10;99.90;;;;;;5041796;28;20044;-85
2021/12/12 06:22:15;;;;;;;282.13;87.30;;;-4.80;99.90;;;;;;5037171;28;20037;-83
2021/12/12 06:24:42;;;;;;;286.25;90.88;;;-5.00;99.90;;;;;;5051649;28;20492;-83
2021/12/12 06:27:15;;;;;;;267.45;87.50;;;-4.90;99.90;;;;;;5068200;28;20086;-83
2021/12/12 06:29:42;;;;;;;274.55;86.65;;;-4.90;99.90;;;;;;5084183;28;20029;-85
2021/12/12 06:32:09;;;;;;;259.35;88.20;;;-4.80;99.90;;;;;;5058778;28;20044;-82
2021/12/12 06:34:35;;;;;;;253.90;86.80;;;-4.80;99.90;;;;;;5034012;28;20096;-85
2021/12/12 06:37:04;;;;;;;273.38;91.57;;;-4.70;99.90;;;;;;5041768;28;20039;-86
2021/12/12 06:39:31;;;;;;;283.73;94.45;;;-4.70;99.90;;;;;;5042297;28;20639;-85
2021/12/12 06:41:57;;;;;;;259.83;87.80;;;-4.60;99.90;;;;;;5060180;28;20082;-82
2021/12/12 06:44:24;;;;;;;267.17;96.03;;;-4.50;99.90;;;;;;5039593;28;20087;-81
2021/12/12 06:46:53;;;;;;;244.25;83.63;;;-4.50;99.90;;;;;;5040450;28;20033;-83
2021/12/12 06:49:20;;;;;;;257.63;84.20;;;-4.50;99.90;;;;;;5060043;28;20040;-82
2021/12/12 06:51:51;;;;;;;239.75;80.00;;;-4.40;99.90;;;;;;5061944;28;20120;-83
2021/12/12 06:54:20;;;;;;;239.82;79.93;;;-4.40;99.90;;;;;;5065904;28;20053;-82
2021/12/12 06:56:49;;;;;;;243.90;81.18;;;-4.30;99.90;;;;;;5062538;28;20048;-83
2021/12/12 06:59:15;;;;;;;246.90;84.45;;;-4.30;99.90;;;;;;5045423;28;20045;-82
2021/12/12 07:01:43;;;;;;;241.45;80.45;;;-4.30;99.90;;;;;;5034541;28;20045;-82
2021/12/12 07:04:12;;;;;;;244.32;82.13;;;-4.20;99.90;;;;;;5052291;28;20120;-85
2021/12/12 07:06:39;;;;;;;222.95;78.35;;;-4.20;99.90;;;;;;5057844;28;20048;-84
2021/12/12 07:09:08;;;;;;;238.55;81.35;;;-4.10;99.90;;;;;;5055206;28;20109;-81
2021/12/12 07:11:36;;;;;;;239.60;80.22;;;-4.10;99.90;;;;;;5048308;28;20033;-87
2021/12/12 07:14:04;;;;;;;249.27;85.15;;;-4.00;99.90;;;;;;5049122;28;20063;-81
2021/12/12 07:16:31;;;;;;;267.88;91.75;;;-4.00;99.90;;;;;;5040946;28;20122;-82
2021/12/12 07:18:58;;;;;;;248.70;86.05;;;-4.00;99.90;;;;;;5039017;28;20041;-79
2021/12/12 07:21:25;;;;;;;242.57;82.30;;;-3.90;99.90;;;;;;5035690;28;20045;-81
2021/12/12 07:23:55;;;;;;;219.50;78.03;;;-3.90;99.90;;;;;;5054649;28;20516;-81
2021/12/12 07:26:24;;;;;;;228.35;77.70;;;-3.80;99.90;;;;;;5025504;28;20045;-81
2021/12/12 07:28:52;;;;;;;204.02;71.28;;;-3.80;99.90;;;;;;5040743;28;20084;-83
2021/12/12 07:31:23;;;;;;;214.75;75.10;;;-3.80;99.90;;;;;;5044397;28;20045;-82
2021/12/12 07:33:52;;;;;;;202.65;74.45;;;-3.80;99.90;;;;;;5057056;28;20040;-81
2021/12/12 07:36:20;;;;;;;202.07;68.60;;;-3.70;99.90;;;;;;5049253;28;20110;-82
2021/12/12 07:38:52;;;;;;;182.15;68.38;;;-3.60;99.90;;;;;;5047575;28;20040;-85
2021/12/12 07:41:22;;;;;;;185.63;70.90;;;-3.60;99.90;;;;;;5070849;28;20128;-84
2021/12/12 07:43:49;;;;;;;191.57;67.93;;;-3.60;99.90;;;;;;5034607;28;20057;-81
2021/12/12 07:46:15;;;;;;;177.05;64.45;;;-3.50;99.90;;;;;;5030450;28;20063;-81
2021/12/12 07:48:48;;;;;;;189.95;67.10;;;-3.40;99.90;;;;;;5052182;28;20033;-83
2021/12/12 07:51:15;;;;;;;190.07;66.18;;;-3.40;99.90;;;;;;5054519;28;20037;-83
2021/12/12 07:53:42;;;;;;;183.93;66.35;;;-3.40;99.90;;;;;;5068752;28;20033;-80
2021/12/12 07:56:09;;;;;;;182.82;66.28;;;-3.40;99.90;;;;;;5068394;28;20053;-81
2021/12/12 07:58:37;;;;;;;176.57;65.25;;;-3.30;99.90;;;;;;5050693;28;20052;-81
2021/12/12 08:01:05;;;;;;;181.15;65.38;;;-3.30;99.90;;;;;;5028840;28;20075;-80
2021/12/12 08:03:34;;;;;;;185.75;68.03;;;-3.20;99.90;;;;;;5032560;28;20037;-82
2021/12/12 08:06:06;;;;;;;185.77;69.28;;;-3.20;99.90;;;;;;5051958;28;20120;-81
2021/12/12 08:08:36;;;;;;;190.77;69.25;;;-3.20;99.90;;;;;;5046051;28;20092;-81
2021/12/12 08:11:04;;;;;;;188.95;72.63;;;-3.10;99.90;;;;;;5031451;28;20061;-80
2021/12/12 08:13:31;;;;;;;185.63;69.57;;;-3.10;99.90;;;;;;5047029;28;20043;-83
2021/12/12 08:15:59;;;;;;;169.13;64.55;;;-3.00;99.90;;;;;;5046878;28;20291;-81
2021/12/12 08:18:26;;;;;;;166.20;65.97;;;-3.00;99.90;;;;;;5044152;28;20037;-80
2021/12/12 08:20:55;;;;;;;181.15;67.05;;;-3.00;99.90;;;;;;5048665;28;20103;-84
2021/12/12 08:23:31;;;;;;;174.13;65.30;;;-2.90;99.90;;;;;;5049502;28;21095;-82
2021/12/12 08:26:24;;;;;;;173.65;64.68;;;-2.90;99.90;;;;;;5047308;28;20141;-81
2021/12/12 08:28:53;;;;;;;175.07;63.17;;;-2.80;99.90;;;;;;5050082;28;20037;-83
2021/12/12 08:31:31;;;;;;;167.77;62.75;;;-2.80;99.90;;;;;;5061923;28;20108;-80
2021/12/12 08:34:20;;;;;;;;;;;-2.80;99.90;;;;;;5050504;28;20048;-83
2021/12/12 08:37:09;;;;;;;177.98;64.47;;;-2.60;99.90;;;;;;5052959;28;19940;-83
2021/12/12 08:39:36;;;;;;;183.70;68.15;;;-2.70;99.90;;;;;;5079689;28;20052;-85
2021/12/12 08:42:16;;;;;;;156.82;60.45;;;-2.70;99.90;;;;;;5042780;28;20061;-80
2021/12/12 08:45:33;;;;;;;165.05;60.35;;;-2.60;99.90;;;;;;5046111;28;20114;-82
2021/12/12 08:48:30;;;;;;;169.18;62.67;;;-2.60;99.90;;;;;;5030118;28;20080;-80
2021/12/12 08:51:07;;;;;;;154.43;60.70;;;-2.60;99.90;;;;;;5015623;28;20044;-82
2021/12/12 08:53:42;;;;;;;149.35;60.15;;;-2.60;99.90;;;;;;5037564;28;20072;-78
2021/12/12 08:56:18;;;;;;;162.57;59.10;;;-2.50;99.90;;;;;;5056756;28;20045;-81
2021/12/12 08:58:44;;;;;;;153.07;60.05;;;-2.50;99.90;;;;;;5021026;28;20052;-81
2021/12/12 09:01:14;;;;;;;155.90;61.50;;;-2.40;99.90;;;;;;5028438;28;20041;-82
2021/12/12 09:03:57;;;;;;;157.93;60.85;;;-2.40;99.90;;;;;;5037701;28;20068;-80
2021/12/12 09:06:32;;;;;;;157.65;63.22;;;-2.40;99.90;;;;;;5060669;28;20040;-81
2021/12/12 09:09:12;;;;;;;165.50;63.35;;;-2.40;99.90;;;;;;5029405;28;20052;-82
2021/12/12 09:12:12;;;;;;;182.00;69.53;;;-2.30;99.90;;;;;;5019392;28;20057;-81
2021/12/12 09:15:02;;;;;;;172.43;63.72;;;-2.30;99.90;;;;;;5045975;28;20059;-78
2021/12/12 09:17:40;;;;;;;163.80;64.75;;;-2.30;99.90;;;;;;5039325;28;20076;-81
2021/12/12 09:20:15;;;;;;;173.20;63.40;;;-2.30;99.90;;;;;;5040877;28;20037;-80
2021/12/12 09:22:56;;;;;;;173.50;67.30;;;-2.30;99.90;;;;;;5058918;28;20100;-79
2021/12/12 09:25:41;;;;;;;189.32;68.43;;;-2.30;99.90;;;;;;5053055;28;20056;-83
2021/12/12 09:28:12;;;;;;;186.93;66.47;;;-2.30;99.90;;;;;;5055999;28;20072;-82
2021/12/12 09:30:39;;;;;;;186.10;66.78;;;-2.20;99.90;;;;;;5073874;28;20039;-81
2021/12/12 09:33:12;;;;;;;178.70;64.70;;;-2.20;99.90;;;;;;5067168;28;20100;-80
2021/12/12 09:35:56;;;;;;;179.35;62.55;;;-2.20;99.90;;;;;;5062420;28;20405;-81
2021/12/12 09:38:30;;;;;;;185.13;66.78;;;-2.20;99.90;;;;;;5044093;28;20045;-81
2021/12/12 09:41:23;;;;;;;194.85;69.25;;;-2.20;99.90;;;;;;5083532;28;20034;-82
2021/12/12 09:44:16;;;;;;;185.35;67.80;;;-2.20;99.90;;;;;;5050644;28;20033;-81
2021/12/12 09:47:35;;;;;;;203.20;69.53;;;-2.20;99.90;;;;;;5066810;28;20044;-80
2021/12/12 09:53:19;;;;;;;187.27;69.50;;;-2.10;99.90;;;;;;5053597;28;20464;-81
2021/12/12 09:56:02;;;;;;;190.57;66.88;;;-2.10;99.90;;;;;;5033343;28;20095;-80
2021/12/12 09:59:07;;;;;;;183.75;68.05;;;-2.20;99.90;;;;;;5051989;28;20350;-82
2021/12/12 10:01:47;;;;;;;192.02;68.25;;;-2.10;99.90;;;;;;5026744;28;20061;-80
2021/12/12 10:04:29;;;;;;;193.73;68.03;;;-2.10;99.90;;;;;;5029914;28;20107;-80
2021/12/12 10:07:13;;;;;;;181.52;66.63;;;-2.00;99.90;;;;;;5013705;28;20489;-80
2021/12/12 10:09:54;;;;;;;176.90;66.43;;;-2.00;99.90;;;;;;5035764;28;20625;-81
2021/12/12 10:12:25;;;;;;;177.57;66.03;;;-1.90;99.90;;;;;;5037859;28;20081;-82
2021/12/12 10:14:58;;;;;;;183.90;67.28;;;-1.90;99.90;;;;;;5020552;28;20450;-80
2021/12/12 10:17:43;;;;;;;172.70;64.75;;;-1.80;99.90;;;;;;5012339;28;20871;-80
2021/12/12 10:20:32;;;;;;;176.13;65.30;;;-1.80;99.90;;;;;;5028361;28;20045;-79
2021/12/12 10:23:13;;;;;;;;;;;-1.80;99.90;;;;;;5016474;28;20115;-81
2021/12/12 10:26:01;;;;;;;174.35;64.00;;;-1.80;99.90;;;;;;5031964;28;19921;-79
2021/12/12 10:28:35;;;;;;;173.98;66.72;;;-1.80;99.90;;;;;;5012124;28;20045;-80
2021/12/12 10:31:16;;;;;;;181.13;68.28;;;-1.70;99.90;;;;;;5017668;28;20466;-81
2021/12/12 10:33:47;;;;;;;174.52;65.25;;;-1.80;99.90;;;;;;5027016;28;20037;-81
2021/12/12 10:36:18;;;;;;;175.32;66.90;;;-1.70;99.90;;;;;;5029757;28;20049;-81
2021/12/12 10:39:17;;;;;;;162.73;63.47;;;-1.60;99.90;;;;;;5051728;28;20079;-81
2021/12/12 10:41:48;;;;;;;175.20;67.97;;;-1.60;99.90;;;;;;5036300;28;20115;-82
2021/12/12 10:44:28;;;;;;;167.50;64.25;;;-1.50;99.90;;;;;;5067167;28;20075;-80
2021/12/12 10:47:05;;;;;;;169.75;64.82;;;-1.40;99.90;;;;;;5045500;28;20057;-80
2021/12/12 10:49:56;;;;;;;173.60;67.82;;;-1.40;99.90;;;;;;5043732;28;20033;-79
2021/12/12 10:52:32;;;;;;;181.30;68.53;;;-1.40;99.90;;;;;;5079974;28;20114;-80
2021/12/12 10:55:05;;;;;;;177.15;67.68;;;-1.40;99.90;;;;;;5050987;28;20147;-81
2021/12/12 10:57:35;;;;;;;168.45;65.60;;;-1.30;99.90;;;;;;5048040;28;20100;-81
2021/12/12 11:00:04;;;;;;;171.02;66.20;;;-1.30;99.90;;;;;;5059680;28;20499;-81
2021/12/12 11:02:36;;;;;;;179.07;67.82;;;-1.20;99.90;;;;;;5056664;28;20045;-81
2021/12/12 11:05:29;;;;;;;189.02;69.03;;;-1.10;99.90;;;;;;5057512;28;20049;-83
2021/12/12 11:08:25;;;;;;;177.25;67.85;;;-1.10;99.90;;;;;;5061712;28;20167;-82
2021/12/12 11:10:53;;;;;;;178.45;71.13;;;-1.00;99.90;;;;;;5035334;28;20445;-81
2021/12/12 11:13:36;;;;;;;148.70;57.25;;;-1.00;99.90;;;;;;5050583;28;20063;-81
2021/12/12 11:16:17;;;;;;;182.75;72.13;;;-1.00;99.90;;;;;;5044210;28;20045;-82
2021/12/12 11:18:49;;;;;;;234.50;101.80;;;-1.00;99.90;;;;;;5043543;28;20041;-82
2021/12/12 11:21:33;;;;;;;198.02;74.28;;;-1.00;99.90;;;;;;5049694;28;20048;-83
2021/12/12 11:24:04;;;;;;;202.45;78.32;;;-1.10;99.90;;;;;;5052898;28;20044;-82
2021/12/12 11:26:56;;;;;;;202.95;77.47;;;-1.10;99.90;;;;;;5038940;28;20493;-79
2021/12/12 11:29:30;;;;;;;204.15;77.82;;;-1.00;99.90;;;;;;5052154;28;20593;-80
2021/12/12 11:32:10;;;;;;;218.80;80.97;;;-1.00;99.90;;;;;;5056916;28;20041;-79
2021/12/12 11:34:42;;;;;;;204.38;76.82;;;-1.00;99.90;;;;;;5057182;28;20429;-78
2021/12/12 11:37:36;;;;;;;215.00;79.07;;;-1.00;99.90;;;;;;5053131;28;20041;-79
2021/12/12 11:40:28;;;;;;;232.85;83.47;;;-1.00;99.90;;;;;;5045897;28;20029;-81
2021/12/12 11:43:20;;;;;;;235.20;85.28;;;-1.00;99.90;;;;;;5047434;28;20473;-81
2021/12/12 11:45:57;;;;;;;287.77;113.72;;;-1.00;99.90;;;;;;5046027;28;20048;-81
2021/12/12 11:49:01;;;;;;;235.90;82.15;;;-1.00;99.90;;;;;;5054247;28;20045;-80
2021/12/12 11:51:47;;;;;;;211.02;80.97;;;-1.00;99.90;;;;;;5023025;28;20029;-78
2021/12/12 11:54:58;;;;;;;229.40;84.10;;;-1.00;99.90;;;;;;5010343;28;20061;-78
2021/12/12 11:57:52;;;;;;;226.13;81.95;;;-1.00;99.90;;;;;;5011318;28;20038;-79
2021/12/12 12:00:27;;;;;;;218.07;79.85;;;-0.90;99.90;;;;;;5032381;28;20493;-77
2021/12/12 12:03:12;;;;;;;228.80;82.03;;;-0.90;99.90;;;;;;5014533;28;20065;-78
2021/12/12 12:05:51;;;;;;;213.10;77.22;;;-0.80;99.90;;;;;;5010643;28;20053;-79
2021/12/12 12:08:38;;;;;;;;;;;-0.80;99.90;;;;;;5019792;28;20041;-78
2021/12/12 12:11:38;;;;;;;221.15;82.43;;;-0.80;99.90;;;;;;4990580;28;19925;-78
2021/12/12 12:14:10;;;;;;;226.07;81.20;;;-0.80;99.90;;;;;;5006138;28;20121;-77
2021/12/12 12:17:17;;;;;;;229.43;82.57;;;-0.90;99.90;;;;;;5022556;28;20095;-79
2021/12/12 12:20:08;;;;;;;218.45;78.68;;;-0.90;99.90;;;;;;4980949;28;20295;-78
2021/12/12 12:22:47;;;;;;;228.15;82.13;;;-0.90;99.90;;;;;;5011218;28;20049;-77
2021/12/12 12:25:19;;;;;;;230.48;85.25;;;-0.90;99.90;;;;;;5026981;28;20095;-80
2021/12/12 12:27:57;;;;;;;220.40;83.55;;;-0.90;99.90;;;;;;5059726;28;20429;-80
2021/12/12 12:31:01;;;;;;;232.32;83.47;;;-0.90;99.90;;;;;;5050806;28;20064;-79
2021/12/12 12:33:52;;;;;;;236.13;89.85;;;-0.90;99.90;;;;;;5035945;28;20049;-78
2021/12/12 12:36:27;;;;;;;236.65;88.95;;;-0.90;99.90;;;;;;5081976;28;20051;-78
2021/12/12 12:39:31;;;;;;;232.13;82.60;;;-0.90;99.90;;;;;;5044032;28;20033;-78
2021/12/12 12:42:37;;;;;;;235.23;84.88;;;-0.90;99.90;;;;;;5087893;28;20037;-78
2021/12/12 12:45:52;;;;;;;229.70;83.20;;;-0.90;99.90;;;;;;5032686;28;20138;-79
2021/12/12 12:48:55;;;;;;;254.27;89.43;;;-0.90;99.90;;;;;;5037333;28;20046;-80
2021/12/12 12:51:39;;;;;;;245.88;87.68;;;-0.90;99.90;;;;;;5047821;28;20056;-80
2021/12/12 12:54:16;;;;;;;258.70;90.35;;;-0.90;99.90;;;;;;5049527;28;20372;-79
2021/12/12 12:57:20;;;;;;;252.40;89.32;;;-0.90;99.90;;;;;;5050263;28;20037;-81
2021/12/12 13:00:10;;;;;;;253.10;88.68;;;-1.00;99.90;;;;;;5059787;28;20136;-80
2021/12/12 13:02:58;;;;;;;257.30;88.10;;;-1.00;99.90;;;;;;5048285;28;20048;-83
2021/12/12 13:05:26;;;;;;;246.83;87.83;;;-1.00;99.90;;;;;;5055851;28;20041;-79
2021/12/12 13:08:30;;;;;;;248.10;89.30;;;-1.00;99.90;;;;;;5049836;28;20041;-78
2021/12/12 13:11:01;;;;;;;263.27;93.15;;;-1.00;99.90;;;;;;5072657;28;20029;-76
2021/12/12 13:13:39;;;;;;;259.95;88.15;;;-1.00;99.90;;;;;;5054992;28;20049;-76
2021/12/12 13:16:18;;;;;;;267.00;90.07;;;-1.00;99.90;;;;;;5035756;28;20404;-76
2021/12/12 13:18:47;;;;;;;281.80;97.28;;;-0.90;99.90;;;;;;5047643;28;20516;-76
2021/12/12 13:21:38;;;;;;;254.15;90.78;;;-0.90;99.90;;;;;;5072258;28;20040;-75